createdAt,value
2017-02-11T00:01:00.463Z,1010.93
2017-02-11T00:02:11.132Z,1010.95
2017-02-11T00:03:21.802Z,1010.99
2017-02-11T00:04:32.472Z,1011.01
2017-02-11T00:05:43.140Z,1011
2017-02-11T00:06:53.807Z,1010.98
2017-02-11T00:08:04.473Z,1011
2017-02-11T00:09:14.744Z,1010.9
2017-02-11T00:10:25.416Z,1010.92
2017-02-11T00:11:36.094Z,1010.91
2017-02-11T00:12:46.367Z,1010.94
2017-02-11T00:13:57.032Z,1010.93
2017-02-11T00:15:07.696Z,1010.98
2017-02-11T00:16:18.360Z,1010.97
2017-02-11T00:17:29.025Z,1010.94
2017-02-11T00:18:39.702Z,1010.97
2017-02-11T00:19:50.371Z,1010.94
2017-02-11T00:21:01.045Z,1010.97
2017-02-11T00:22:11.716Z,1010.95
2017-02-11T00:23:22.389Z,1010.99
2017-02-11T00:24:33.065Z,1010.97
2017-02-11T00:25:43.737Z,1010.97
2017-02-11T00:26:54.400Z,1011
2017-02-11T00:28:05.062Z,1011.03
2017-02-11T00:29:15.726Z,1011.03
2017-02-11T00:30:26.389Z,1011.03
2017-02-11T00:31:37.056Z,1010.99
2017-02-11T00:32:47.721Z,1010.98
2017-02-11T00:33:58.388Z,1010.97
2017-02-11T00:35:09.051Z,1010.97
2017-02-11T00:36:19.716Z,1010.99
2017-02-11T00:37:30.381Z,1011.05
2017-02-11T00:38:41.056Z,1011.09
2017-02-11T00:39:51.726Z,1011.07
2017-02-11T00:41:02.743Z,1011.09
2017-02-11T00:42:13.406Z,1011.06
2017-02-11T00:43:24.076Z,1011.12
2017-02-11T00:44:34.735Z,1011.13
2017-02-11T00:45:45.001Z,1011.12
2017-02-11T00:46:55.673Z,1011.07
2017-02-11T00:48:06.336Z,1011.03
2017-02-11T00:49:16.609Z,1011.01
2017-02-11T00:50:27.274Z,1010.99
2017-02-11T00:51:37.934Z,1010.91
2017-02-11T00:52:48.602Z,1011
2017-02-11T00:53:59.264Z,1010.94
2017-02-11T00:55:09.928Z,1010.87
2017-02-11T00:56:20.590Z,1010.83
2017-02-11T00:57:31.259Z,1010.79
2017-02-11T00:58:41.925Z,1010.78
2017-02-11T00:59:52.611Z,1010.74
2017-02-11T01:01:03.288Z,1010.69
2017-02-11T01:02:13.570Z,1010.78
2017-02-11T01:03:24.237Z,1010.77
2017-02-11T01:04:34.916Z,1010.74
2017-02-11T01:05:45.186Z,1010.73
2017-02-11T01:06:55.857Z,1010.75
2017-02-11T01:08:06.126Z,1010.78
2017-02-11T01:09:16.793Z,1010.82
2017-02-11T01:10:27.466Z,1010.84
2017-02-11T01:11:37.749Z,1010.81
2017-02-11T01:12:48.419Z,1010.83
2017-02-11T01:13:59.093Z,1010.84
2017-02-11T01:15:09.763Z,1010.85
2017-02-11T01:16:20.031Z,1010.86
2017-02-11T01:17:30.701Z,1010.87
2017-02-11T01:18:41.365Z,1010.83
2017-02-11T01:19:52.030Z,1010.84
2017-02-11T01:21:02.697Z,1010.86
2017-02-11T01:22:12.959Z,1010.86
2017-02-11T01:23:23.228Z,1010.8
2017-02-11T01:24:33.893Z,1010.84
2017-02-11T01:25:44.165Z,1010.83
2017-02-11T01:26:54.821Z,1010.85
2017-02-11T01:28:05.086Z,1010.86
2017-02-11T01:29:14.959Z,1010.92
2017-02-11T01:30:25.646Z,1010.93
2017-02-11T01:31:36.318Z,1010.89
2017-02-11T01:32:46.978Z,1010.91
2017-02-11T01:33:57.291Z,1010.9
2017-02-11T01:35:07.960Z,1010.86
2017-02-11T01:36:18.235Z,1010.89
2017-02-11T01:37:28.906Z,1010.88
2017-02-11T01:38:39.571Z,1010.9
2017-02-11T01:39:50.236Z,1010.91
2017-02-11T01:41:00.908Z,1010.89
2017-02-11T01:42:11.573Z,1010.88
2017-02-11T01:43:22.235Z,1010.85
2017-02-11T01:44:32.905Z,1010.8
2017-02-11T01:45:43.667Z,1010.76
2017-02-11T01:46:54.335Z,1010.75
2017-02-11T01:48:05.002Z,1010.75
2017-02-11T01:49:15.281Z,1010.71
2017-02-11T01:50:25.952Z,1010.68
2017-02-11T01:51:36.621Z,1010.71
2017-02-11T01:52:47.286Z,1010.78
2017-02-11T01:53:57.954Z,1010.79
2017-02-11T01:55:08.223Z,1010.81
2017-02-11T01:56:18.494Z,1010.75
2017-02-11T01:57:28.765Z,1010.72
2017-02-11T01:58:39.434Z,1010.68
2017-02-11T01:59:50.102Z,1010.64
2017-02-11T02:01:00.775Z,1010.61
2017-02-11T02:02:11.441Z,1010.61
2017-02-11T02:03:21.709Z,1010.58
2017-02-11T02:04:32.377Z,1010.62
2017-02-11T02:05:42.645Z,1010.64
2017-02-11T02:06:53.308Z,1010.63
2017-02-11T02:08:03.579Z,1010.6
2017-02-11T02:09:14.248Z,1010.62
2017-02-11T02:10:24.912Z,1010.53
2017-02-11T02:11:35.587Z,1010.57
2017-02-11T02:12:46.253Z,1010.53
2017-02-11T02:13:56.939Z,1010.56
2017-02-11T02:15:07.613Z,1010.55
2017-02-11T02:16:18.282Z,1010.57
2017-02-11T02:17:28.977Z,1010.55
2017-02-11T02:18:39.641Z,1010.59
2017-02-11T02:19:49.908Z,1010.55
2017-02-11T02:21:00.589Z,1010.56
2017-02-11T02:22:10.860Z,1010.59
2017-02-11T02:23:21.523Z,1010.61
2017-02-11T02:24:32.191Z,1010.6
2017-02-11T02:25:42.461Z,1010.6
2017-02-11T02:26:53.132Z,1010.64
2017-02-11T02:28:03.403Z,1010.66
2017-02-11T02:29:13.665Z,1010.65
2017-02-11T02:30:23.929Z,1010.64
2017-02-11T02:31:34.595Z,1010.66
2017-02-11T02:32:45.265Z,1010.62
2017-02-11T02:33:55.934Z,1010.65
2017-02-11T02:35:06.601Z,1010.62
2017-02-11T02:36:17.277Z,1010.59
2017-02-11T02:37:27.965Z,1010.61
2017-02-11T02:38:38.638Z,1010.61
2017-02-11T02:39:48.907Z,1010.58
2017-02-11T02:40:59.175Z,1010.58
2017-02-11T02:42:09.847Z,1010.53
2017-02-11T02:43:20.518Z,1010.58
2017-02-11T02:44:31.215Z,1010.57
2017-02-11T02:45:41.884Z,1010.54
2017-02-11T02:46:52.173Z,1010.54
2017-02-11T02:48:02.840Z,1010.54
2017-02-11T02:49:13.505Z,1010.51
2017-02-11T02:50:23.775Z,1010.53
2017-02-11T02:51:34.439Z,1010.48
2017-02-11T02:52:45.108Z,1010.49
2017-02-11T02:53:55.787Z,1010.46
2017-02-11T02:55:06.057Z,1010.46
2017-02-11T02:56:16.732Z,1010.48
2017-02-11T02:57:27.405Z,1010.45
2017-02-11T02:58:38.068Z,1010.47
2017-02-11T02:59:48.734Z,1010.45
2017-02-11T03:00:59.423Z,1010.47
2017-02-11T03:02:10.088Z,1010.48
2017-02-11T03:03:20.365Z,1010.46
2017-02-11T03:04:31.035Z,1010.47
2017-02-11T03:05:41.697Z,1010.48
2017-02-11T03:06:52.363Z,1010.54
2017-02-11T03:08:03.035Z,1010.53
2017-02-11T03:09:13.701Z,1010.55
2017-02-11T03:10:24.381Z,1010.58
2017-02-11T03:11:35.051Z,1010.53
2017-02-11T03:12:45.717Z,1010.54
2017-02-11T03:13:56.557Z,1010.57
2017-02-11T03:15:06.425Z,1010.57
2017-02-11T03:16:17.121Z,1010.61
2017-02-11T03:17:27.398Z,1010.62
2017-02-11T03:18:37.696Z,1010.65
2017-02-11T03:19:48.668Z,1010.65
2017-02-11T03:20:59.336Z,1010.65
2017-02-11T03:22:09.222Z,1010.6
2017-02-11T03:23:19.918Z,1010.6
2017-02-11T03:24:30.591Z,1010.58
2017-02-11T03:25:41.272Z,1010.62
2017-02-11T03:26:51.935Z,1010.59
2017-02-11T03:28:02.203Z,1010.55
2017-02-11T03:29:12.473Z,1010.56
2017-02-11T03:30:22.741Z,1010.55
2017-02-11T03:31:33.407Z,1010.61
2017-02-11T03:32:44.070Z,1010.56
2017-02-11T03:33:54.734Z,1010.59
2017-02-11T03:35:05.425Z,1010.61
2017-02-11T03:36:16.097Z,1010.65
2017-02-11T03:37:26.761Z,1010.65
2017-02-11T03:38:37.426Z,1010.67
2017-02-11T03:39:48.096Z,1010.67
2017-02-11T03:40:58.766Z,1010.73
2017-02-11T03:42:09.428Z,1010.7
2017-02-11T03:43:20.098Z,1010.75
2017-02-11T03:44:30.761Z,1010.76
2017-02-11T03:45:41.435Z,1010.73
2017-02-11T03:46:52.107Z,1010.75
2017-02-11T03:48:02.770Z,1010.73
2017-02-11T03:49:12.648Z,1010.79
2017-02-11T03:50:22.928Z,1010.76
2017-02-11T03:51:33.597Z,1010.72
2017-02-11T03:52:44.266Z,1010.7
2017-02-11T03:53:54.935Z,1010.65
2017-02-11T03:55:05.610Z,1010.65
2017-02-11T03:56:16.277Z,1010.65
2017-02-11T03:57:26.942Z,1010.64
2017-02-11T03:58:37.612Z,1010.64
2017-02-11T03:59:48.279Z,1010.65
2017-02-11T04:00:58.947Z,1010.63
2017-02-11T04:02:09.615Z,1010.71
2017-02-11T04:03:20.275Z,1010.64
2017-02-11T04:04:30.940Z,1010.65
2017-02-11T04:05:41.607Z,1010.6
2017-02-11T04:06:52.279Z,1010.64
2017-02-11T04:08:02.945Z,1010.6
2017-02-11T04:09:13.614Z,1010.64
2017-02-11T04:10:23.902Z,1010.67
2017-02-11T04:11:34.572Z,1010.64
2017-02-11T04:12:45.242Z,1010.66
2017-02-11T04:13:55.912Z,1010.67
2017-02-11T04:15:06.581Z,1010.67
2017-02-11T04:16:16.854Z,1010.64
2017-02-11T04:17:27.518Z,1010.67
2017-02-11T04:18:38.186Z,1010.61
2017-02-11T04:19:48.853Z,1010.6
2017-02-11T04:20:59.522Z,1010.56
2017-02-11T04:22:10.189Z,1010.57
2017-02-11T04:23:20.448Z,1010.58
2017-02-11T04:24:31.113Z,1010.53
2017-02-11T04:25:41.778Z,1010.53
2017-02-11T04:26:52.450Z,1010.53
2017-02-11T04:28:03.117Z,1010.51
2017-02-11T04:29:12.991Z,1010.52
2017-02-11T04:30:23.659Z,1010.51
2017-02-11T04:31:34.325Z,1010.53
2017-02-11T04:32:44.994Z,1010.47
2017-02-11T04:33:55.672Z,1010.46
2017-02-11T04:35:06.351Z,1010.46
2017-02-11T04:36:17.025Z,1010.43
2017-02-11T04:37:27.693Z,1010.46
2017-02-11T04:38:38.356Z,1010.43
2017-02-11T04:39:49.045Z,1010.38
2017-02-11T04:40:59.712Z,1010.41
2017-02-11T04:42:10.373Z,1010.38
2017-02-11T04:43:21.040Z,1010.42
2017-02-11T04:44:31.705Z,1010.42
2017-02-11T04:45:42.367Z,1010.39
2017-02-11T04:46:53.030Z,1010.41
2017-02-11T04:48:03.699Z,1010.44
2017-02-11T04:49:13.576Z,1010.4
2017-02-11T04:50:23.845Z,1010.44
2017-02-11T04:51:34.511Z,1010.46
2017-02-11T04:52:45.179Z,1010.41
2017-02-11T04:53:55.846Z,1010.42
2017-02-11T04:55:06.520Z,1010.41
2017-02-11T04:56:17.189Z,1010.44
2017-02-11T04:57:27.865Z,1010.41
2017-02-11T04:58:38.531Z,1010.47
2017-02-11T04:59:49.198Z,1010.5
2017-02-11T05:00:59.864Z,1010.51
2017-02-11T05:02:10.138Z,1010.48
2017-02-11T05:03:20.404Z,1010.5
2017-02-11T05:04:31.083Z,1010.48
2017-02-11T05:05:41.749Z,1010.47
2017-02-11T05:06:52.420Z,1010.5
2017-02-11T05:08:03.123Z,1010.48
2017-02-11T05:09:13.793Z,1010.56
2017-02-11T05:10:24.454Z,1010.55
2017-02-11T05:11:34.721Z,1010.58
2017-02-11T05:12:45.384Z,1010.53
2017-02-11T05:13:56.055Z,1010.55
2017-02-11T05:15:06.724Z,1010.54
2017-02-11T05:16:17.390Z,1010.53
2017-02-11T05:17:28.055Z,1010.52
2017-02-11T05:18:38.322Z,1010.51
2017-02-11T05:19:48.987Z,1010.52
2017-02-11T05:20:59.657Z,1010.53
2017-02-11T05:22:10.327Z,1010.51
2017-02-11T05:23:20.593Z,1010.46
2017-02-11T05:24:31.258Z,1010.43
2017-02-11T05:25:41.916Z,1010.46
2017-02-11T05:26:52.579Z,1010.4
2017-02-11T05:28:03.251Z,1010.42
2017-02-11T05:29:13.914Z,1010.44
2017-02-11T05:30:24.619Z,1010.42
2017-02-11T05:31:35.290Z,1010.46
2017-02-11T05:32:45.990Z,1010.48
2017-02-11T05:33:56.658Z,1010.49
2017-02-11T05:35:06.921Z,1010.48
2017-02-11T05:36:17.593Z,1010.49
2017-02-11T05:37:28.267Z,1010.48
2017-02-11T05:38:38.964Z,1010.5
2017-02-11T05:39:49.231Z,1010.5
2017-02-11T05:40:59.505Z,1010.46
2017-02-11T05:42:09.775Z,1010.42
2017-02-11T05:43:20.446Z,1010.44
2017-02-11T05:44:31.108Z,1010.42
2017-02-11T05:45:41.776Z,1010.43
2017-02-11T05:46:52.443Z,1010.47
2017-02-11T05:48:03.139Z,1010.39
2017-02-11T05:49:13.815Z,1010.38
2017-02-11T05:50:24.485Z,1010.38
2017-02-11T05:51:35.145Z,1010.39
2017-02-11T05:52:45.809Z,1010.39
2017-02-11T05:53:56.478Z,1010.4
2017-02-11T05:55:07.145Z,1010.38
2017-02-11T05:56:17.814Z,1010.4
2017-02-11T05:57:28.482Z,1010.4
2017-02-11T05:58:39.146Z,1010.39
2017-02-11T05:59:49.816Z,1010.4
2017-02-11T06:01:00.486Z,1010.41
2017-02-11T06:02:10.754Z,1010.38
2017-02-11T06:03:21.026Z,1010.38
2017-02-11T06:04:31.695Z,1010.41
2017-02-11T06:05:42.367Z,1010.43
2017-02-11T06:06:53.038Z,1010.45
2017-02-11T06:08:03.710Z,1010.48
2017-02-11T06:09:14.385Z,1010.47
2017-02-11T06:10:25.053Z,1010.5
2017-02-11T06:11:35.743Z,1010.45
2017-02-11T06:12:46.405Z,1010.45
2017-02-11T06:13:56.672Z,1010.46
2017-02-11T06:15:07.334Z,1010.45
2017-02-11T06:16:18.002Z,1010.47
2017-02-11T06:17:28.672Z,1010.45
2017-02-11T06:18:39.337Z,1010.46
2017-02-11T06:19:50.004Z,1010.46
2017-02-11T06:21:00.670Z,1010.47
2017-02-11T06:22:10.943Z,1010.46
2017-02-11T06:23:21.611Z,1010.48
2017-02-11T06:24:32.277Z,1010.47
2017-02-11T06:25:42.552Z,1010.47
2017-02-11T06:26:53.216Z,1010.52
2017-02-11T06:28:03.890Z,1010.53
2017-02-11T06:29:14.554Z,1010.53
2017-02-11T06:30:25.224Z,1010.56
2017-02-11T06:31:35.894Z,1010.58
2017-02-11T06:32:46.168Z,1010.57
2017-02-11T06:33:56.841Z,1010.53
2017-02-11T06:35:07.506Z,1010.54
2017-02-11T06:36:17.776Z,1010.56
2017-02-11T06:37:28.452Z,1010.57
2017-02-11T06:38:39.121Z,1010.6
2017-02-11T06:39:49.786Z,1010.59
2017-02-11T06:41:00.453Z,1010.61
2017-02-11T06:42:10.725Z,1010.66
2017-02-11T06:43:21.000Z,1010.61
2017-02-11T06:44:31.673Z,1010.68
2017-02-11T06:45:42.339Z,1010.64
2017-02-11T06:46:53.002Z,1010.69
2017-02-11T06:48:03.664Z,1010.72
2017-02-11T06:49:13.934Z,1010.72
2017-02-11T06:50:24.607Z,1010.77
2017-02-11T06:51:35.276Z,1010.75
2017-02-11T06:52:45.947Z,1010.77
2017-02-11T06:53:56.619Z,1010.74
2017-02-11T06:55:07.288Z,1010.73
2017-02-11T06:56:17.552Z,1010.73
2017-02-11T06:57:28.217Z,1010.73
2017-02-11T06:58:38.888Z,1010.72
2017-02-11T06:59:49.569Z,1010.67
2017-02-11T07:01:00.244Z,1010.63
2017-02-11T07:02:10.915Z,1010.64
2017-02-11T07:03:20.789Z,1010.65
2017-02-11T07:04:31.462Z,1010.7
2017-02-11T07:05:42.136Z,1010.71
2017-02-11T07:06:52.804Z,1010.64
2017-02-11T07:08:03.468Z,1010.65
2017-02-11T07:09:14.136Z,1010.67
2017-02-11T07:10:24.808Z,1010.68
2017-02-11T07:11:35.100Z,1010.62
2017-02-11T07:12:45.767Z,1010.6
2017-02-11T07:13:56.428Z,1010.64
2017-02-11T07:15:07.096Z,1010.61
2017-02-11T07:16:17.366Z,1010.63
2017-02-11T07:17:27.634Z,1010.61
2017-02-11T07:18:38.336Z,1010.66
2017-02-11T07:19:49.007Z,1010.63
2017-02-11T07:20:59.673Z,1010.67
2017-02-11T07:22:09.941Z,1010.67
2017-02-11T07:23:20.605Z,1010.7
2017-02-11T07:24:31.293Z,1010.67
2017-02-11T07:25:41.956Z,1010.7
2017-02-11T07:26:52.620Z,1010.7
2017-02-11T07:28:03.341Z,1010.71
2017-02-11T07:29:13.613Z,1010.74
2017-02-11T07:30:24.279Z,1010.72
2017-02-11T07:31:34.546Z,1010.76
2017-02-11T07:32:45.212Z,1010.73
2017-02-11T07:33:55.875Z,1010.73
2017-02-11T07:35:06.548Z,1010.72
2017-02-11T07:36:17.214Z,1010.74
2017-02-11T07:37:27.878Z,1010.76
2017-02-11T07:38:38.544Z,1010.79
2017-02-11T07:39:49.210Z,1010.81
2017-02-11T07:40:59.873Z,1010.86
2017-02-11T07:42:10.142Z,1010.84
2017-02-11T07:43:20.804Z,1010.8
2017-02-11T07:44:31.468Z,1010.81
2017-02-11T07:45:42.134Z,1010.84
2017-02-11T07:46:52.801Z,1010.81
2017-02-11T07:48:03.473Z,1010.84
2017-02-11T07:49:13.749Z,1010.89
2017-02-11T07:50:24.412Z,1010.87
2017-02-11T07:51:35.080Z,1010.87
2017-02-11T07:52:45.744Z,1010.84
2017-02-11T07:53:56.410Z,1010.88
2017-02-11T07:55:07.088Z,1010.87
2017-02-11T07:56:17.756Z,1010.88
2017-02-11T07:57:28.421Z,1010.86
2017-02-11T07:58:39.087Z,1010.87
2017-02-11T07:59:49.755Z,1010.9
2017-02-11T08:01:00.417Z,1010.89
2017-02-11T08:02:10.682Z,1010.9
2017-02-11T08:03:21.345Z,1010.94
2017-02-11T08:04:32.009Z,1010.94
2017-02-11T08:05:42.685Z,1010.93
2017-02-11T08:06:53.354Z,1010.95
2017-02-11T08:08:04.018Z,1010.95
2017-02-11T08:09:14.700Z,1010.95
2017-02-11T08:10:25.368Z,1010.96
2017-02-11T08:11:36.042Z,1010.96
2017-02-11T08:12:46.725Z,1010.99
2017-02-11T08:13:57.392Z,1010.93
2017-02-11T08:15:08.059Z,1010.91
2017-02-11T08:16:18.725Z,1010.96
2017-02-11T08:17:28.989Z,1010.93
2017-02-11T08:18:39.672Z,1010.93
2017-02-11T08:19:50.341Z,1010.92
2017-02-11T08:21:01.037Z,1010.91
2017-02-11T08:22:11.707Z,1010.95
2017-02-11T08:23:22.373Z,1010.96
2017-02-11T08:24:33.054Z,1010.96
2017-02-11T08:25:43.721Z,1010.92
2017-02-11T08:26:54.383Z,1010.91
2017-02-11T08:28:05.067Z,1010.93
2017-02-11T08:29:15.338Z,1010.93
2017-02-11T08:30:26.009Z,1010.93
2017-02-11T08:31:36.674Z,1010.9
2017-02-11T08:32:47.341Z,1010.9
2017-02-11T08:33:58.011Z,1010.93
2017-02-11T08:35:08.283Z,1010.91
2017-02-11T08:36:18.978Z,1010.97
2017-02-11T08:37:29.667Z,1010.92
2017-02-11T08:38:40.337Z,1010.94
2017-02-11T08:39:51.047Z,1010.97
2017-02-11T08:41:01.741Z,1010.91
2017-02-11T08:42:12.406Z,1010.88
2017-02-11T08:43:22.680Z,1010.86
2017-02-11T08:44:33.351Z,1010.83
2017-02-11T08:45:44.022Z,1010.82
2017-02-11T08:46:54.705Z,1010.81
2017-02-11T08:48:05.401Z,1010.77
2017-02-11T08:49:16.077Z,1010.76
2017-02-11T08:50:26.779Z,1010.78
2017-02-11T08:51:37.450Z,1010.78
2017-02-11T08:52:48.122Z,1010.81
2017-02-11T08:53:58.792Z,1010.8
2017-02-11T08:55:09.473Z,1010.82
2017-02-11T08:56:20.140Z,1010.83
2017-02-11T08:57:30.800Z,1010.93
2017-02-11T08:58:41.467Z,1010.95
2017-02-11T08:59:52.137Z,1010.98
2017-02-11T09:01:02.805Z,1010.99
2017-02-11T09:02:13.081Z,1010.97
2017-02-11T09:03:23.758Z,1010.98
2017-02-11T09:04:34.429Z,1010.97
2017-02-11T09:05:45.101Z,1010.95
2017-02-11T09:06:55.776Z,1010.98
2017-02-11T09:08:06.483Z,1010.95
2017-02-11T09:09:17.197Z,1010.96
2017-02-11T09:10:27.865Z,1010.92
2017-02-11T09:11:38.548Z,1010.96
2017-02-11T09:12:49.223Z,1010.94
2017-02-11T09:13:59.896Z,1010.96
2017-02-11T09:15:10.166Z,1010.93
2017-02-11T09:16:20.443Z,1010.97
2017-02-11T09:17:30.315Z,1010.97
2017-02-11T09:18:40.983Z,1010.96
2017-02-11T09:19:51.252Z,1010.96
2017-02-11T09:21:01.926Z,1010.94
2017-02-11T09:22:12.201Z,1010.92
2017-02-11T09:23:22.869Z,1010.94
2017-02-11T09:24:33.546Z,1010.97
2017-02-11T09:25:44.219Z,1010.93
2017-02-11T09:26:54.888Z,1010.96
2017-02-11T09:28:05.591Z,1010.91
2017-02-11T09:29:15.866Z,1010.94
2017-02-11T09:30:26.533Z,1010.9
2017-02-11T09:31:37.197Z,1010.85
2017-02-11T09:32:47.866Z,1010.83
2017-02-11T09:33:58.540Z,1010.83
2017-02-11T09:35:09.210Z,1010.81
2017-02-11T09:36:19.088Z,1010.85
2017-02-11T09:37:29.767Z,1010.82
2017-02-11T09:38:40.435Z,1010.83
2017-02-11T09:39:51.109Z,1010.81
2017-02-11T09:41:01.777Z,1010.81
2017-02-11T09:42:12.446Z,1010.83
2017-02-11T09:43:23.115Z,1010.8
2017-02-11T09:44:33.779Z,1010.79
2017-02-11T09:45:44.445Z,1010.82
2017-02-11T09:46:54.719Z,1010.81
2017-02-11T09:48:04.994Z,1010.82
2017-02-11T09:49:15.273Z,1010.82
2017-02-11T09:50:25.541Z,1010.81
2017-02-11T09:51:36.209Z,1010.82
2017-02-11T09:52:46.481Z,1010.82
2017-02-11T09:53:57.158Z,1010.8
2017-02-11T09:55:07.442Z,1010.83
2017-02-11T09:56:17.752Z,1010.81
2017-02-11T09:57:28.422Z,1010.83
2017-02-11T09:58:39.091Z,1010.84
2017-02-11T09:59:54.361Z,1010.81
2017-02-11T10:01:05.046Z,1010.84
2017-02-11T10:02:15.317Z,1010.81
2017-02-11T10:03:25.593Z,1010.8
2017-02-11T10:04:36.260Z,1010.85
2017-02-11T10:05:46.532Z,1010.83
2017-02-11T10:06:57.205Z,1010.82
2017-02-11T10:08:07.875Z,1010.78
2017-02-11T10:09:18.552Z,1010.79
2017-02-11T10:10:29.222Z,1010.85
2017-02-11T10:11:39.892Z,1010.84
2017-02-11T10:12:50.573Z,1010.83
2017-02-11T10:14:01.245Z,1010.86
2017-02-11T10:15:11.922Z,1010.88
2017-02-11T10:16:22.593Z,1010.84
2017-02-11T10:17:32.874Z,1010.84
2017-02-11T10:18:43.605Z,1010.83
2017-02-11T10:19:53.519Z,1010.79
2017-02-11T10:21:04.195Z,1010.76
2017-02-11T10:22:14.878Z,1010.72
2017-02-11T10:23:25.554Z,1010.75
2017-02-11T10:24:36.227Z,1010.76
2017-02-11T10:25:46.916Z,1010.77
2017-02-11T10:26:57.594Z,1010.81
2017-02-11T10:28:08.314Z,1010.81
2017-02-11T10:29:18.993Z,1010.74
2017-02-11T10:30:29.278Z,1010.77
2017-02-11T10:31:39.950Z,1010.78
2017-02-11T10:32:50.619Z,1010.78
2017-02-11T10:34:01.293Z,1010.76
2017-02-11T10:35:11.968Z,1010.79
2017-02-11T10:36:22.243Z,1010.72
2017-02-11T10:37:32.917Z,1010.72
2017-02-11T10:38:43.587Z,1010.74
2017-02-11T10:39:53.470Z,1010.77
2017-02-11T10:41:03.748Z,1010.78
2017-02-11T10:42:14.427Z,1010.78
2017-02-11T10:43:25.099Z,1010.74
2017-02-11T10:44:35.767Z,1010.81
2017-02-11T10:45:46.443Z,1010.75
2017-02-11T10:46:56.327Z,1010.74
2017-02-11T10:48:06.609Z,1010.74
2017-02-11T10:49:16.882Z,1010.71
2017-02-11T10:50:27.559Z,1010.72
2017-02-11T10:51:38.228Z,1010.74
2017-02-11T10:52:48.501Z,1010.72
2017-02-11T10:53:59.171Z,1010.71
2017-02-11T10:55:09.840Z,1010.69
2017-02-11T10:56:20.509Z,1010.71
2017-02-11T10:57:31.174Z,1010.67
2017-02-11T10:58:41.844Z,1010.67
2017-02-11T10:59:52.521Z,1010.69
2017-02-11T11:01:03.218Z,1010.64
2017-02-11T11:02:13.887Z,1010.68
2017-02-11T11:03:24.555Z,1010.65
2017-02-11T11:04:35.228Z,1010.71
2017-02-11T11:05:45.900Z,1010.75
2017-02-11T11:06:56.568Z,1010.75
2017-02-11T11:08:07.240Z,1010.73
2017-02-11T11:09:17.510Z,1010.72
2017-02-11T11:10:28.182Z,1010.68
2017-02-11T11:11:38.857Z,1010.68
2017-02-11T11:12:49.535Z,1010.63
2017-02-11T11:14:00.210Z,1010.62
2017-02-11T11:15:10.085Z,1010.62
2017-02-11T11:16:20.358Z,1010.63
2017-02-11T11:17:31.058Z,1010.63
2017-02-11T11:18:41.730Z,1010.61
2017-02-11T11:19:52.403Z,1010.69
2017-02-11T11:21:03.079Z,1010.68
2017-02-11T11:22:13.746Z,1010.69
2017-02-11T11:23:24.016Z,1010.7
2017-02-11T11:24:34.684Z,1010.68
2017-02-11T11:25:45.356Z,1010.65
2017-02-11T11:26:56.028Z,1010.72
2017-02-11T11:28:06.695Z,1010.71
2017-02-11T11:29:17.364Z,1010.67
2017-02-11T11:30:28.032Z,1010.63
2017-02-11T11:31:37.906Z,1010.57
2017-02-11T11:32:48.612Z,1010.59
2017-02-11T11:33:58.894Z,1010.58
2017-02-11T11:35:09.568Z,1010.53
2017-02-11T11:36:20.278Z,1010.55
2017-02-11T11:37:30.554Z,1010.56
2017-02-11T11:38:41.225Z,1010.58
2017-02-11T11:39:51.921Z,1010.59
2017-02-11T11:41:02.592Z,1010.61
2017-02-11T11:42:12.866Z,1010.6
2017-02-11T11:43:23.139Z,1010.58
2017-02-11T11:44:33.815Z,1010.56
2017-02-11T11:45:44.484Z,1010.55
2017-02-11T11:46:55.160Z,1010.58
2017-02-11T11:48:05.870Z,1010.54
2017-02-11T11:49:16.145Z,1010.52
2017-02-11T11:50:26.416Z,1010.56
2017-02-11T11:51:36.689Z,1010.57
2017-02-11T11:52:47.363Z,1010.61
2017-02-11T11:53:58.030Z,1010.61
2017-02-11T11:55:08.304Z,1010.61
2017-02-11T11:56:18.584Z,1010.6
2017-02-11T11:57:29.259Z,1010.57
2017-02-11T11:58:39.925Z,1010.55
2017-02-11T11:59:50.601Z,1010.55
2017-02-11T12:01:01.279Z,1010.47
2017-02-11T12:02:11.955Z,1010.46
2017-02-11T12:03:22.225Z,1010.49
2017-02-11T12:04:32.499Z,1010.47
2017-02-11T12:05:43.173Z,1010.48
2017-02-11T12:06:53.836Z,1010.43
2017-02-11T12:08:04.510Z,1010.41
2017-02-11T12:09:15.186Z,1010.4
2017-02-11T12:10:25.857Z,1010.41
2017-02-11T12:11:36.129Z,1010.35
2017-02-11T12:12:46.803Z,1010.34
2017-02-11T12:13:57.474Z,1010.32
2017-02-11T12:15:07.345Z,1010.33
2017-02-11T12:16:18.013Z,1010.3
2017-02-11T12:17:28.687Z,1010.3
2017-02-11T12:18:38.962Z,1010.33
2017-02-11T12:19:49.636Z,1010.3
2017-02-11T12:21:00.312Z,1010.27
2017-02-11T12:22:10.589Z,1010.26
2017-02-11T12:23:21.261Z,1010.27
2017-02-11T12:24:31.143Z,1010.3
2017-02-11T12:25:41.424Z,1010.41
2017-02-11T12:26:52.136Z,1010.32
2017-02-11T12:28:02.844Z,1010.27
2017-02-11T12:29:12.723Z,1010.31
2017-02-11T12:30:23.393Z,1010.31
2017-02-11T12:31:34.066Z,1010.4
2017-02-11T12:32:44.341Z,1010.38
2017-02-11T12:33:55.010Z,1010.3
2017-02-11T12:35:05.683Z,1010.34
2017-02-11T12:36:15.964Z,1010.31
2017-02-11T12:37:26.643Z,1010.33
2017-02-11T12:38:37.318Z,1010.33
2017-02-11T12:39:47.593Z,1010.31
2017-02-11T12:40:58.266Z,1010.26
2017-02-11T12:42:08.542Z,1010.28
2017-02-11T12:43:18.824Z,1010.25
2017-02-11T12:44:29.099Z,1010.19
2017-02-11T12:45:39.772Z,1010.17
2017-02-11T12:46:50.449Z,1010.16
2017-02-11T12:48:01.123Z,1010.14
2017-02-11T12:49:11.797Z,1010.22
2017-02-11T12:50:22.071Z,1010.09
2017-02-11T12:51:32.744Z,1010.03
2017-02-11T12:52:43.018Z,1009.99
2017-02-11T12:53:53.698Z,1010
2017-02-11T12:55:03.580Z,1010.02
2017-02-11T12:56:14.254Z,1010.1
2017-02-11T12:57:24.927Z,1010.17
2017-02-11T12:58:35.204Z,1010.19
2017-02-11T12:59:45.878Z,1010.17
2017-02-11T13:00:56.550Z,1010.15
2017-02-11T13:02:07.223Z,1010.15
2017-02-11T13:03:17.499Z,1010.06
2017-02-11T13:04:27.776Z,1010.01
2017-02-11T13:05:38.453Z,1009.91
2017-02-11T13:06:49.136Z,1010.02
2017-02-11T13:07:59.812Z,1010.07
2017-02-11T13:09:10.490Z,1010.03
2017-02-11T13:10:21.168Z,1010.02
2017-02-11T13:11:31.447Z,1010
2017-02-11T13:12:42.126Z,1009.91
2017-02-11T13:13:52.797Z,1009.94
2017-02-11T13:15:03.082Z,1009.9
2017-02-11T13:16:12.966Z,1009.85
2017-02-11T13:17:23.643Z,1009.87
2017-02-11T13:18:34.324Z,1009.86
2017-02-11T13:19:44.999Z,1009.81
2017-02-11T13:20:55.279Z,1009.8
2017-02-11T13:22:05.964Z,1009.86
2017-02-11T13:23:16.645Z,1009.89
2017-02-11T13:24:27.326Z,1009.87
2017-02-11T13:25:38.107Z,1009.88
2017-02-11T13:26:48.829Z,1009.89
2017-02-11T13:27:59.510Z,1009.87
2017-02-11T13:29:10.220Z,1009.88
2017-02-11T13:30:20.931Z,1009.89
2017-02-11T13:31:31.657Z,1009.86
2017-02-11T13:32:42.336Z,1009.82
2017-02-11T13:33:53.017Z,1009.78
2017-02-11T13:35:03.710Z,1009.74
2017-02-11T13:36:14.439Z,1009.71
2017-02-11T13:37:25.116Z,1009.67
2017-02-11T13:38:35.403Z,1009.69
2017-02-11T13:39:46.090Z,1009.69
2017-02-11T13:40:56.768Z,1009.7
2017-02-11T13:42:07.446Z,1009.7
2017-02-11T13:43:17.338Z,1009.65
2017-02-11T13:44:28.014Z,1009.7
2017-02-11T13:45:38.695Z,1009.71
2017-02-11T13:46:49.373Z,1009.73
2017-02-11T13:48:00.120Z,1009.69
2017-02-11T13:49:10.839Z,1009.69
2017-02-11T13:50:20.723Z,1009.65
2017-02-11T13:51:31.402Z,1009.69
2017-02-11T13:52:42.086Z,1009.69
2017-02-11T13:53:52.759Z,1009.62
2017-02-11T13:55:03.435Z,1009.6
2017-02-11T13:56:12.925Z,1009.64
2017-02-11T13:57:23.606Z,1009.59
2017-02-11T13:58:34.281Z,1009.61
2017-02-11T13:59:44.955Z,1009.67
2017-02-11T14:00:55.233Z,1009.64
2017-02-11T14:02:05.973Z,1009.66
2017-02-11T14:03:16.643Z,1009.67
2017-02-11T14:04:26.917Z,1009.68
2017-02-11T14:05:37.189Z,1009.73
2017-02-11T14:06:48.213Z,1009.76
2017-02-11T14:07:58.886Z,1009.75
2017-02-11T14:09:09.559Z,1009.76
2017-02-11T14:10:19.439Z,1009.67
2017-02-11T14:11:30.138Z,1009.64
2017-02-11T14:12:40.812Z,1009.71
2017-02-11T14:13:51.484Z,1009.69
2017-02-11T14:15:02.159Z,1009.7
2017-02-11T14:16:12.438Z,1009.68
2017-02-11T14:17:23.114Z,1009.69